sensor_id;sensor_type;location;lat;lon;timestamp;P1;durP1;ratioP1;P2;durP2;ratioP2
65009;SDS011;51556;50.002;22.014;2023-07-20T00:01:27;7.80;;;3.90;;
65009;SDS011;51556;50.002;22.014;2023-07-20T00:03:53;7.90;;;4.20;;
65009;SDS011;51556;50.002;22.014;2023-07-20T00:06:21;9.70;;;4.40;;
65009;SDS011;51556;50.002;22.014;2023-07-20T00:08:47;8.80;;;4.20;;
65009;SDS011;51556;50.002;22.014;2023-07-20T00:11:13;6.00;;;3.90;;
65009;SDS011;51556;50.002;22.014;2023-07-20T00:13:39;5.50;;;3.30;;
65009;SDS011;51556;50.002;22.014;2023-07-20T00:16:05;7.00;;;3.60;;
65009;SDS011;51556;50.002;22.014;2023-07-20T00:18:30;9.80;;;4.00;;
65009;SDS011;51556;50.002;22.014;2023-07-20T00:20:56;9.60;;;4.20;;
65009;SDS011;51556;50.002;22.014;2023-07-20T00:23:21;6.80;;;4.00;;
65009;SDS011;51556;50.002;22.014;2023-07-20T00:25:47;5.20;;;3.80;;
65009;SDS011;51556;50.002;22.014;2023-07-20T00:28:13;6.50;;;3.70;;
65009;SDS011;51556;50.002;22.014;2023-07-20T00:30:39;6.20;;;3.90;;
65009;SDS011;51556;50.002;22.014;2023-07-20T00:33:06;10.80;;;4.30;;
65009;SDS011;51556;50.002;22.014;2023-07-20T00:35:35;6.60;;;3.70;;
65009;SDS011;51556;50.002;22.014;2023-07-20T00:38:00;7.10;;;3.90;;
65009;SDS011;51556;50.002;22.014;2023-07-20T00:40:26;7.60;;;3.70;;
65009;SDS011;51556;50.002;22.014;2023-07-20T00:42:51;5.70;;;3.60;;
65009;SDS011;51556;50.002;22.014;2023-07-20T00:45:17;8.30;;;4.10;;
65009;SDS011;51556;50.002;22.014;2023-07-20T00:47:42;5.40;;;3.60;;
65009;SDS011;51556;50.002;22.014;2023-07-20T00:50:08;7.00;;;3.80;;
65009;SDS011;51556;50.002;22.014;2023-07-20T00:52:35;6.90;;;3.90;;
65009;SDS011;51556;50.002;22.014;2023-07-20T00:55:04;5.60;;;3.60;;
65009;SDS011;51556;50.002;22.014;2023-07-20T00:57:31;5.60;;;3.50;;
65009;SDS011;51556;50.002;22.014;2023-07-20T00:59:57;7.30;;;3.50;;
65009;SDS011;51556;50.002;22.014;2023-07-20T01:02:23;5.40;;;3.50;;
65009;SDS011;51556;50.002;22.014;2023-07-20T01:04:49;4.90;;;3.20;;
65009;SDS011;51556;50.002;22.014;2023-07-20T01:07:17;5.30;;;3.50;;
65009;SDS011;51556;50.002;22.014;2023-07-20T01:12:41;6.30;;;3.40;;
65009;SDS011;51556;50.002;22.014;2023-07-20T01:15:08;6.40;;;3.40;;
65009;SDS011;51556;50.002;22.014;2023-07-20T01:17:35;8.30;;;3.40;;
65009;SDS011;51556;50.002;22.014;2023-07-20T01:20:01;7.80;;;3.50;;
65009;SDS011;51556;50.002;22.014;2023-07-20T01:33:21;3.90;;;3.20;;
65009;SDS011;51556;50.002;22.014;2023-07-20T01:35:52;6.00;;;2.90;;
65009;SDS011;51556;50.002;22.014;2023-07-20T01:38:20;6.00;;;3.10;;
65009;SDS011;51556;50.002;22.014;2023-07-20T01:40:46;8.50;;;2.90;;
65009;SDS011;51556;50.002;22.014;2023-07-20T01:43:12;4.80;;;3.00;;
65009;SDS011;51556;50.002;22.014;2023-07-20T01:45:38;6.20;;;3.20;;
65009;SDS011;51556;50.002;22.014;2023-07-20T01:48:03;6.30;;;3.20;;
65009;SDS011;51556;50.002;22.014;2023-07-20T01:50:29;5.30;;;2.90;;
65009;SDS011;51556;50.002;22.014;2023-07-20T01:52:54;5.10;;;3.10;;
65009;SDS011;51556;50.002;22.014;2023-07-20T01:55:20;4.90;;;3.30;;
65009;SDS011;51556;50.002;22.014;2023-07-20T01:57:45;5.60;;;3.20;;
65009;SDS011;51556;50.002;22.014;2023-07-20T02:00:11;5.60;;;3.10;;
65009;SDS011;51556;50.002;22.014;2023-07-20T02:02:37;6.50;;;4.00;;
65009;SDS011;51556;50.002;22.014;2023-07-20T02:05:02;6.10;;;3.00;;
65009;SDS011;51556;50.002;22.014;2023-07-20T02:07:28;8.10;;;3.70;;
65009;SDS011;51556;50.002;22.014;2023-07-20T02:09:53;5.30;;;2.80;;
65009;SDS011;51556;50.002;22.014;2023-07-20T02:12:19;6.20;;;2.90;;
65009;SDS011;51556;50.002;22.014;2023-07-20T02:14:44;8.80;;;3.60;;
65009;SDS011;51556;50.002;22.014;2023-07-20T02:17:09;6.40;;;3.10;;
65009;SDS011;51556;50.002;22.014;2023-07-20T02:19:36;4.00;;;3.00;;
65009;SDS011;51556;50.002;22.014;2023-07-20T02:22:02;5.30;;;3.30;;
65009;SDS011;51556;50.002;22.014;2023-07-20T02:24:28;7.40;;;3.10;;
65009;SDS011;51556;50.002;22.014;2023-07-20T02:26:53;5.80;;;3.00;;
65009;SDS011;51556;50.002;22.014;2023-07-20T02:29:19;5.00;;;3.10;;
65009;SDS011;51556;50.002;22.014;2023-07-20T02:31:44;5.60;;;3.20;;
65009;SDS011;51556;50.002;22.014;2023-07-20T02:34:10;6.10;;;3.20;;
65009;SDS011;51556;50.002;22.014;2023-07-20T02:36:35;7.10;;;3.00;;
65009;SDS011;51556;50.002;22.014;2023-07-20T02:39:01;5.50;;;3.00;;
65009;SDS011;51556;50.002;22.014;2023-07-20T02:41:29;5.20;;;3.10;;
65009;SDS011;51556;50.002;22.014;2023-07-20T02:43:55;6.30;;;3.20;;
65009;SDS011;51556;50.002;22.014;2023-07-20T02:46:21;5.40;;;3.20;;
65009;SDS011;51556;50.002;22.014;2023-07-20T02:48:47;4.60;;;2.80;;
65009;SDS011;51556;50.002;22.014;2023-07-20T02:51:13;7.40;;;3.00;;
65009;SDS011;51556;50.002;22.014;2023-07-20T02:53:38;4.70;;;3.30;;
65009;SDS011;51556;50.002;22.014;2023-07-20T02:56:03;5.80;;;2.70;;
65009;SDS011;51556;50.002;22.014;2023-07-20T02:58:29;5.10;;;3.00;;
65009;SDS011;51556;50.002;22.014;2023-07-20T03:00:54;9.20;;;3.10;;
65009;SDS011;51556;50.002;22.014;2023-07-20T03:03:20;4.60;;;3.40;;
65009;SDS011;51556;50.002;22.014;2023-07-20T03:05:45;6.20;;;3.60;;
65009;SDS011;51556;50.002;22.014;2023-07-20T03:08:11;6.70;;;3.30;;
65009;SDS011;51556;50.002;22.014;2023-07-20T03:10:39;6.40;;;3.20;;
65009;SDS011;51556;50.002;22.014;2023-07-20T03:13:06;8.70;;;3.20;;
65009;SDS011;51556;50.002;22.014;2023-07-20T03:15:31;4.30;;;2.90;;
65009;SDS011;51556;50.002;22.014;2023-07-20T03:17:57;8.00;;;3.50;;
65009;SDS011;51556;50.002;22.014;2023-07-20T03:20:23;8.90;;;3.20;;
65009;SDS011;51556;50.002;22.014;2023-07-20T03:22:49;5.40;;;2.90;;
65009;SDS011;51556;50.002;22.014;2023-07-20T03:25:14;4.90;;;3.00;;
65009;SDS011;51556;50.002;22.014;2023-07-20T03:27:40;6.20;;;3.20;;
65009;SDS011;51556;50.002;22.014;2023-07-20T03:30:06;6.10;;;3.10;;
65009;SDS011;51556;50.002;22.014;2023-07-20T03:32:32;5.50;;;3.10;;
65009;SDS011;51556;50.002;22.014;2023-07-20T03:34:57;5.20;;;2.40;;
65009;SDS011;51556;50.002;22.014;2023-07-20T03:37:23;5.70;;;3.00;;
65009;SDS011;51556;50.002;22.014;2023-07-20T03:39:48;7.00;;;3.50;;
65009;SDS011;51556;50.002;22.014;2023-07-20T03:42:14;6.90;;;3.20;;
65009;SDS011;51556;50.002;22.014;2023-07-20T03:44:39;7.40;;;3.20;;
65009;SDS011;51556;50.002;22.014;2023-07-20T03:47:05;3.40;;;2.70;;
65009;SDS011;51556;50.002;22.014;2023-07-20T03:49:31;5.10;;;2.70;;
65009;SDS011;51556;50.002;22.014;2023-07-20T03:51:57;6.60;;;2.60;;
65009;SDS011;51556;50.002;22.014;2023-07-20T03:54:22;5.50;;;2.80;;
65009;SDS011;51556;50.002;22.014;2023-07-20T03:56:47;7.20;;;3.00;;
65009;SDS011;51556;50.002;22.014;2023-07-20T03:59:13;6.70;;;3.70;;
65009;SDS011;51556;50.002;22.014;2023-07-20T04:01:39;5.60;;;3.00;;
65009;SDS011;51556;50.002;22.014;2023-07-20T04:04:06;5.40;;;3.40;;
65009;SDS011;51556;50.002;22.014;2023-07-20T04:06:32;8.60;;;3.80;;
65009;SDS011;51556;50.002;22.014;2023-07-20T04:08:58;9.40;;;3.70;;
65009;SDS011;51556;50.002;22.014;2023-07-20T04:11:23;5.70;;;3.70;;
65009;SDS011;51556;50.002;22.014;2023-07-20T04:13:49;7.70;;;4.00;;
65009;SDS011;51556;50.002;22.014;2023-07-20T04:16:14;6.90;;;3.60;;
65009;SDS011;51556;50.002;22.014;2023-07-20T04:18:40;5.70;;;3.80;;
65009;SDS011;51556;50.002;22.014;2023-07-20T04:21:07;7.20;;;3.70;;
65009;SDS011;51556;50.002;22.014;2023-07-20T04:23:33;6.20;;;3.20;;
65009;SDS011;51556;50.002;22.014;2023-07-20T04:26:00;8.10;;;3.50;;
65009;SDS011;51556;50.002;22.014;2023-07-20T04:28:25;5.40;;;3.30;;
65009;SDS011;51556;50.002;22.014;2023-07-20T04:30:52;6.40;;;3.00;;
65009;SDS011;51556;50.002;22.014;2023-07-20T04:33:18;5.50;;;3.10;;
65009;SDS011;51556;50.002;22.014;2023-07-20T04:35:50;5.60;;;3.10;;
65009;SDS011;51556;50.002;22.014;2023-07-20T04:38:17;6.90;;;3.60;;
65009;SDS011;51556;50.002;22.014;2023-07-20T04:40:49;6.80;;;4.00;;
65009;SDS011;51556;50.002;22.014;2023-07-20T04:43:15;7.00;;;3.90;;
65009;SDS011;51556;50.002;22.014;2023-07-20T04:45:41;11.50;;;3.30;;
65009;SDS011;51556;50.002;22.014;2023-07-20T04:48:09;5.90;;;3.20;;
65009;SDS011;51556;50.002;22.014;2023-07-20T04:50:36;8.00;;;3.40;;
65009;SDS011;51556;50.002;22.014;2023-07-20T04:53:02;6.30;;;3.40;;
65009;SDS011;51556;50.002;22.014;2023-07-20T04:55:27;10.50;;;4.20;;
65009;SDS011;51556;50.002;22.014;2023-07-20T04:57:53;9.90;;;5.30;;
65009;SDS011;51556;50.002;22.014;2023-07-20T05:00:19;9.30;;;4.50;;
65009;SDS011;51556;50.002;22.014;2023-07-20T05:02:45;9.50;;;4.50;;
65009;SDS011;51556;50.002;22.014;2023-07-20T05:05:12;7.50;;;3.60;;
65009;SDS011;51556;50.002;22.014;2023-07-20T05:07:38;8.70;;;3.70;;
65009;SDS011;51556;50.002;22.014;2023-07-20T05:10:03;11.10;;;3.90;;
65009;SDS011;51556;50.002;22.014;2023-07-20T05:12:29;6.90;;;3.80;;
65009;SDS011;51556;50.002;22.014;2023-07-20T05:14:55;7.40;;;4.10;;
65009;SDS011;51556;50.002;22.014;2023-07-20T05:17:20;7.60;;;3.60;;
65009;SDS011;51556;50.002;22.014;2023-07-20T05:19:46;9.00;;;3.40;;
65009;SDS011;51556;50.002;22.014;2023-07-20T05:22:13;8.20;;;3.60;;
65009;SDS011;51556;50.002;22.014;2023-07-20T05:24:38;5.00;;;3.10;;
65009;SDS011;51556;50.002;22.014;2023-07-20T05:27:04;8.70;;;3.30;;
65009;SDS011;51556;50.002;22.014;2023-07-20T05:29:29;6.00;;;3.40;;
65009;SDS011;51556;50.002;22.014;2023-07-20T05:31:55;6.80;;;3.50;;
65009;SDS011;51556;50.002;22.014;2023-07-20T05:34:20;7.60;;;3.50;;
65009;SDS011;51556;50.002;22.014;2023-07-20T05:36:46;7.60;;;4.00;;
65009;SDS011;51556;50.002;22.014;2023-07-20T05:39:11;8.00;;;4.00;;
65009;SDS011;51556;50.002;22.014;2023-07-20T05:41:37;12.20;;;4.00;;
65009;SDS011;51556;50.002;22.014;2023-07-20T05:44:02;12.40;;;4.50;;
65009;SDS011;51556;50.002;22.014;2023-07-20T05:46:27;8.10;;;4.10;;
65009;SDS011;51556;50.002;22.014;2023-07-20T05:48:53;6.10;;;3.00;;
65009;SDS011;51556;50.002;22.014;2023-07-20T05:51:18;10.60;;;3.50;;
65009;SDS011;51556;50.002;22.014;2023-07-20T05:53:44;6.10;;;3.10;;
65009;SDS011;51556;50.002;22.014;2023-07-20T05:56:09;8.00;;;3.70;;
65009;SDS011;51556;50.002;22.014;2023-07-20T05:58:35;7.00;;;3.50;;
65009;SDS011;51556;50.002;22.014;2023-07-20T06:01:01;5.20;;;3.10;;
65009;SDS011;51556;50.002;22.014;2023-07-20T06:03:27;5.80;;;3.00;;
65009;SDS011;51556;50.002;22.014;2023-07-20T06:05:57;7.00;;;3.50;;
65009;SDS011;51556;50.002;22.014;2023-07-20T06:10:50;6.90;;;3.70;;
65009;SDS011;51556;50.002;22.014;2023-07-20T06:13:16;6.60;;;3.30;;
65009;SDS011;51556;50.002;22.014;2023-07-20T06:15:42;6.00;;;3.80;;
65009;SDS011;51556;50.002;22.014;2023-07-20T06:18:08;7.90;;;3.10;;
65009;SDS011;51556;50.002;22.014;2023-07-20T06:20:34;6.80;;;3.70;;
65009;SDS011;51556;50.002;22.014;2023-07-20T06:22:59;6.50;;;3.30;;
65009;SDS011;51556;50.002;22.014;2023-07-20T06:25:25;6.30;;;3.20;;
65009;SDS011;51556;50.002;22.014;2023-07-20T06:27:51;6.20;;;3.50;;
65009;SDS011;51556;50.002;22.014;2023-07-20T06:30:16;9.80;;;3.20;;
65009;SDS011;51556;50.002;22.014;2023-07-20T06:32:42;6.90;;;3.20;;
65009;SDS011;51556;50.002;22.014;2023-07-20T06:35:08;6.00;;;3.50;;
65009;SDS011;51556;50.002;22.014;2023-07-20T06:37:34;4.00;;;2.60;;
65009;SDS011;51556;50.002;22.014;2023-07-20T06:40:01;8.50;;;3.50;;
65009;SDS011;51556;50.002;22.014;2023-07-20T06:42:28;7.50;;;3.60;;
65009;SDS011;51556;50.002;22.014;2023-07-20T06:44:54;6.30;;;3.40;;
65009;SDS011;51556;50.002;22.014;2023-07-20T06:47:20;8.80;;;4.20;;
65009;SDS011;51556;50.002;22.014;2023-07-20T06:49:45;7.10;;;4.30;;
65009;SDS011;51556;50.002;22.014;2023-07-20T06:52:10;7.90;;;4.10;;
65009;SDS011;51556;50.002;22.014;2023-07-20T06:54:36;8.80;;;4.30;;
65009;SDS011;51556;50.002;22.014;2023-07-20T06:57:01;13.80;;;4.60;;
65009;SDS011;51556;50.002;22.014;2023-07-20T06:59:27;7.90;;;4.20;;
65009;SDS011;51556;50.002;22.014;2023-07-20T07:01:52;5.80;;;4.10;;
65009;SDS011;51556;50.002;22.014;2023-07-20T07:04:18;8.90;;;4.80;;
65009;SDS011;51556;50.002;22.014;2023-07-20T07:06:43;9.80;;;4.20;;
65009;SDS011;51556;50.002;22.014;2023-07-20T07:09:09;9.30;;;4.60;;
65009;SDS011;51556;50.002;22.014;2023-07-20T07:11:34;7.10;;;3.80;;
65009;SDS011;51556;50.002;22.014;2023-07-20T07:14:00;8.80;;;3.80;;
65009;SDS011;51556;50.002;22.014;2023-07-20T07:16:25;10.30;;;3.90;;
65009;SDS011;51556;50.002;22.014;2023-07-20T07:18:51;7.10;;;4.20;;
65009;SDS011;51556;50.002;22.014;2023-07-20T07:21:16;7.10;;;4.10;;
65009;SDS011;51556;50.002;22.014;2023-07-20T07:23:43;7.80;;;3.60;;
65009;SDS011;51556;50.002;22.014;2023-07-20T07:26:11;5.00;;;3.70;;
65009;SDS011;51556;50.002;22.014;2023-07-20T07:28:37;8.20;;;3.90;;
65009;SDS011;51556;50.002;22.014;2023-07-20T07:31:05;6.20;;;3.80;;
65009;SDS011;51556;50.002;22.014;2023-07-20T07:33:32;6.80;;;4.50;;
65009;SDS011;51556;50.002;22.014;2023-07-20T07:35:57;7.90;;;4.40;;
65009;SDS011;51556;50.002;22.014;2023-07-20T07:38:23;7.10;;;4.10;;
65009;SDS011;51556;50.002;22.014;2023-07-20T07:40:48;7.40;;;4.20;;
65009;SDS011;51556;50.002;22.014;2023-07-20T07:43:14;5.80;;;3.30;;
65009;SDS011;51556;50.002;22.014;2023-07-20T07:45:39;7.90;;;3.80;;
65009;SDS011;51556;50.002;22.014;2023-07-20T07:48:05;8.00;;;3.90;;
65009;SDS011;51556;50.002;22.014;2023-07-20T07:50:32;6.10;;;3.80;;
65009;SDS011;51556;50.002;22.014;2023-07-20T07:52:58;6.80;;;3.40;;
65009;SDS011;51556;50.002;22.014;2023-07-20T07:55:24;5.40;;;4.00;;
65009;SDS011;51556;50.002;22.014;2023-07-20T07:57:51;8.40;;;4.00;;
65009;SDS011;51556;50.002;22.014;2023-07-20T08:00:17;8.70;;;3.90;;
65009;SDS011;51556;50.002;22.014;2023-07-20T08:02:44;6.90;;;4.10;;
65009;SDS011;51556;50.002;22.014;2023-07-20T08:05:11;8.40;;;4.20;;
65009;SDS011;51556;50.002;22.014;2023-07-20T08:07:37;6.70;;;4.20;;
65009;SDS011;51556;50.002;22.014;2023-07-20T08:10:11;5.10;;;3.30;;
65009;SDS011;51556;50.002;22.014;2023-07-20T08:12:37;8.70;;;4.20;;
65009;SDS011;51556;50.002;22.014;2023-07-20T08:15:02;11.20;;;4.30;;
65009;SDS011;51556;50.002;22.014;2023-07-20T08:17:29;6.70;;;3.90;;
65009;SDS011;51556;50.002;22.014;2023-07-20T08:19:54;7.30;;;3.80;;
65009;SDS011;51556;50.002;22.014;2023-07-20T08:22:20;12.50;;;4.90;;
65009;SDS011;51556;50.002;22.014;2023-07-20T08:24:45;11.00;;;4.30;;
65009;SDS011;51556;50.002;22.014;2023-07-20T08:27:11;10.10;;;4.30;;
65009;SDS011;51556;50.002;22.014;2023-07-20T08:29:37;8.30;;;3.80;;
65009;SDS011;51556;50.002;22.014;2023-07-20T08:32:02;8.30;;;4.40;;
65009;SDS011;51556;50.002;22.014;2023-07-20T08:34:29;6.30;;;4.10;;
65009;SDS011;51556;50.002;22.014;2023-07-20T08:36:55;6.90;;;4.20;;
65009;SDS011;51556;50.002;22.014;2023-07-20T08:39:21;6.80;;;3.60;;
65009;SDS011;51556;50.002;22.014;2023-07-20T08:41:47;11.00;;;4.70;;
65009;SDS011;51556;50.002;22.014;2023-07-20T08:44:14;6.80;;;3.90;;
65009;SDS011;51556;50.002;22.014;2023-07-20T08:46:40;7.10;;;4.00;;
65009;SDS011;51556;50.002;22.014;2023-07-20T08:49:06;5.90;;;3.30;;
65009;SDS011;51556;50.002;22.014;2023-07-20T08:51:32;7.30;;;3.70;;
65009;SDS011;51556;50.002;22.014;2023-07-20T08:54:00;6.40;;;4.10;;
65009;SDS011;51556;50.002;22.014;2023-07-20T08:56:26;6.90;;;3.60;;
65009;SDS011;51556;50.002;22.014;2023-07-20T08:58:52;4.40;;;3.30;;
65009;SDS011;51556;50.002;22.014;2023-07-20T09:01:19;8.80;;;4.30;;
65009;SDS011;51556;50.002;22.014;2023-07-20T09:03:46;7.90;;;4.10;;
65009;SDS011;51556;50.002;22.014;2023-07-20T09:06:11;6.10;;;3.00;;
65009;SDS011;51556;50.002;22.014;2023-07-20T09:08:40;7.60;;;4.00;;
65009;SDS011;51556;50.002;22.014;2023-07-20T09:11:06;6.10;;;3.60;;
65009;SDS011;51556;50.002;22.014;2023-07-20T09:13:32;5.70;;;3.80;;
65009;SDS011;51556;50.002;22.014;2023-07-20T09:15:59;7.10;;;4.20;;
65009;SDS011;51556;50.002;22.014;2023-07-20T09:18:29;4.90;;;3.70;;
65009;SDS011;51556;50.002;22.014;2023-07-20T09:23:36;8.90;;;3.60;;
65009;SDS011;51556;50.002;22.014;2023-07-20T09:26:10;8.00;;;4.00;;
65009;SDS011;51556;50.002;22.014;2023-07-20T09:28:43;7.60;;;3.70;;
65009;SDS011;51556;50.002;22.014;2023-07-20T09:31:16;10.40;;;4.50;;
65009;SDS011;51556;50.002;22.014;2023-07-20T09:33:43;7.80;;;3.50;;
65009;SDS011;51556;50.002;22.014;2023-07-20T09:36:10;5.20;;;3.60;;
65009;SDS011;51556;50.002;22.014;2023-07-20T09:38:41;8.50;;;3.50;;
65009;SDS011;51556;50.002;22.014;2023-07-20T09:41:13;6.90;;;4.00;;
65009;SDS011;51556;50.002;22.014;2023-07-20T09:43:43;6.20;;;3.10;;
65009;SDS011;51556;50.002;22.014;2023-07-20T09:46:10;4.60;;;2.90;;
65009;SDS011;51556;50.002;22.014;2023-07-20T09:48:36;8.20;;;3.30;;
65009;SDS011;51556;50.002;22.014;2023-07-20T09:51:01;6.80;;;3.20;;
65009;SDS011;51556;50.002;22.014;2023-07-20T09:53:28;5.10;;;3.10;;
65009;SDS011;51556;50.002;22.014;2023-07-20T09:55:55;5.80;;;3.00;;
65009;SDS011;51556;50.002;22.014;2023-07-20T09:58:21;4.70;;;2.60;;
65009;SDS011;51556;50.002;22.014;2023-07-20T10:00:47;5.40;;;2.50;;
65009;SDS011;51556;50.002;22.014;2023-07-20T10:03:20;3.40;;;2.40;;
65009;SDS011;51556;50.002;22.014;2023-07-20T10:06:20;4.70;;;2.60;;
65009;SDS011;51556;50.002;22.014;2023-07-20T10:08:41;4.70;;;2.60;;
65009;SDS011;51556;50.002;22.014;2023-07-20T10:11:09;6.70;;;3.00;;
65009;SDS011;51556;50.002;22.014;2023-07-20T10:13:38;5.60;;;2.90;;
65009;SDS011;51556;50.002;22.014;2023-07-20T10:16:10;4.50;;;2.40;;
65009;SDS011;51556;50.002;22.014;2023-07-20T10:21:35;5.50;;;2.50;;
65009;SDS011;51556;50.002;22.014;2023-07-20T10:24:10;4.00;;;2.40;;
65009;SDS011;51556;50.002;22.014;2023-07-20T10:26:36;5.20;;;2.80;;
65009;SDS011;51556;50.002;22.014;2023-07-20T10:29:02;6.10;;;2.80;;
65009;SDS011;51556;50.002;22.014;2023-07-20T10:31:29;4.00;;;2.40;;
65009;SDS011;51556;50.002;22.014;2023-07-20T10:33:58;4.20;;;2.50;;
65009;SDS011;51556;50.002;22.014;2023-07-20T10:36:25;4.70;;;2.60;;
65009;SDS011;51556;50.002;22.014;2023-07-20T10:38:55;5.50;;;2.50;;
65009;SDS011;51556;50.002;22.014;2023-07-20T10:43:49;5.20;;;2.40;;
65009;SDS011;51556;50.002;22.014;2023-07-20T10:46:33;5.40;;;2.70;;
65009;SDS011;51556;50.002;22.014;2023-07-20T10:49:10;4.10;;;2.60;;
65009;SDS011;51556;50.002;22.014;2023-07-20T10:51:46;9.00;;;2.70;;
65009;SDS011;51556;50.002;22.014;2023-07-20T10:56:40;7.70;;;2.30;;
65009;SDS011;51556;50.002;22.014;2023-07-20T10:59:17;4.00;;;2.20;;
65009;SDS011;51556;50.002;22.014;2023-07-20T11:01:48;4.00;;;2.20;;
65009;SDS011;51556;50.002;22.014;2023-07-20T11:04:17;7.70;;;2.30;;
65009;SDS011;51556;50.002;22.014;2023-07-20T11:06:46;5.30;;;2.20;;
65009;SDS011;51556;50.002;22.014;2023-07-20T11:09:21;4.40;;;2.00;;
65009;SDS011;51556;50.002;22.014;2023-07-20T11:12:08;2.90;;;2.10;;
65009;SDS011;51556;50.002;22.014;2023-07-20T11:14:55;3.90;;;2.20;;
65009;SDS011;51556;50.002;22.014;2023-07-20T11:17:29;3.90;;;2.20;;
65009;SDS011;51556;50.002;22.014;2023-07-20T11:19:55;3.40;;;1.70;;
65009;SDS011;51556;50.002;22.014;2023-07-20T11:22:22;4.20;;;2.00;;
65009;SDS011;51556;50.002;22.014;2023-07-20T11:24:48;3.80;;;1.80;;
65009;SDS011;51556;50.002;22.014;2023-07-20T11:27:14;3.40;;;1.90;;
65009;SDS011;51556;50.002;22.014;2023-07-20T11:29:40;5.50;;;2.30;;
65009;SDS011;51556;50.002;22.014;2023-07-20T11:32:06;4.20;;;2.10;;
65009;SDS011;51556;50.002;22.014;2023-07-20T11:34:32;4.80;;;1.90;;
65009;SDS011;51556;50.002;22.014;2023-07-20T11:36:58;3.70;;;1.80;;
65009;SDS011;51556;50.002;22.014;2023-07-20T11:39:24;3.70;;;1.90;;
65009;SDS011;51556;50.002;22.014;2023-07-20T11:41:54;2.40;;;1.60;;
65009;SDS011;51556;50.002;22.014;2023-07-20T11:44:21;2.60;;;1.60;;
65009;SDS011;51556;50.002;22.014;2023-07-20T11:46:53;2.50;;;1.30;;
65009;SDS011;51556;50.002;22.014;2023-07-20T11:49:28;1.80;;;1.10;;
65009;SDS011;51556;50.002;22.014;2023-07-20T11:51:54;1.40;;;1.10;;
65009;SDS011;51556;50.002;22.014;2023-07-20T11:54:21;2.40;;;1.30;;
65009;SDS011;51556;50.002;22.014;2023-07-20T11:56:48;2.10;;;1.50;;
65009;SDS011;51556;50.002;22.014;2023-07-20T11:59:13;3.30;;;1.40;;
65009;SDS011;51556;50.002;22.014;2023-07-20T12:01:39;5.40;;;1.30;;
65009;SDS011;51556;50.002;22.014;2023-07-20T12:04:04;1.50;;;1.00;;
65009;SDS011;51556;50.002;22.014;2023-07-20T12:06:34;2.50;;;1.10;;
65009;SDS011;51556;50.002;22.014;2023-07-20T12:09:00;2.20;;;0.80;;
65009;SDS011;51556;50.002;22.014;2023-07-20T12:13:57;3.50;;;1.20;;
65009;SDS011;51556;50.002;22.014;2023-07-20T12:16:26;3.30;;;1.40;;
65009;SDS011;51556;50.002;22.014;2023-07-20T12:21:44;1.20;;;1.10;;
65009;SDS011;51556;50.002;22.014;2023-07-20T12:24:10;2.10;;;1.00;;
65009;SDS011;51556;50.002;22.014;2023-07-20T12:26:36;1.40;;;1.00;;
65009;SDS011;51556;50.002;22.014;2023-07-20T12:29:02;2.30;;;1.10;;
65009;SDS011;51556;50.002;22.014;2023-07-20T12:31:33;0.90;;;0.80;;
65009;SDS011;51556;50.002;22.014;2023-07-20T12:34:01;4.60;;;1.30;;
65009;SDS011;51556;50.002;22.014;2023-07-20T12:36:27;2.00;;;1.10;;
65009;SDS011;51556;50.002;22.014;2023-07-20T12:38:52;1.40;;;1.20;;
65009;SDS011;51556;50.002;22.014;2023-07-20T12:41:18;1.90;;;1.00;;
65009;SDS011;51556;50.002;22.014;2023-07-20T12:43:44;1.90;;;1.10;;
65009;SDS011;51556;50.002;22.014;2023-07-20T12:46:11;1.80;;;0.80;;
65009;SDS011;51556;50.002;22.014;2023-07-20T12:48:38;1.90;;;1.00;;
65009;SDS011;51556;50.002;22.014;2023-07-20T12:51:06;2.40;;;1.20;;
65009;SDS011;51556;50.002;22.014;2023-07-20T12:53:32;2.30;;;1.10;;
65009;SDS011;51556;50.002;22.014;2023-07-20T12:55:58;3.10;;;1.20;;
65009;SDS011;51556;50.002;22.014;2023-07-20T12:58:25;1.60;;;0.90;;
65009;SDS011;51556;50.002;22.014;2023-07-20T13:00:51;2.30;;;1.20;;
65009;SDS011;51556;50.002;22.014;2023-07-20T13:03:18;1.60;;;1.20;;
65009;SDS011;51556;50.002;22.014;2023-07-20T13:05:44;1.60;;;0.80;;
65009;SDS011;51556;50.002;22.014;2023-07-20T13:08:13;2.40;;;1.10;;
65009;SDS011;51556;50.002;22.014;2023-07-20T13:10:39;1.30;;;1.00;;
65009;SDS011;51556;50.002;22.014;2023-07-20T13:13:05;1.20;;;0.90;;
65009;SDS011;51556;50.002;22.014;2023-07-20T13:15:32;1.20;;;1.00;;
65009;SDS011;51556;50.002;22.014;2023-07-20T13:18:05;1.80;;;0.90;;
65009;SDS011;51556;50.002;22.014;2023-07-20T13:20:31;4.40;;;1.40;;
65009;SDS011;51556;50.002;22.014;2023-07-20T13:22:56;2.10;;;1.00;;
65009;SDS011;51556;50.002;22.014;2023-07-20T13:25:22;1.60;;;1.00;;
65009;SDS011;51556;50.002;22.014;2023-07-20T13:27:47;1.40;;;0.90;;
65009;SDS011;51556;50.002;22.014;2023-07-20T13:30:13;2.80;;;1.00;;
65009;SDS011;51556;50.002;22.014;2023-07-20T13:32:42;3.40;;;1.00;;
65009;SDS011;51556;50.002;22.014;2023-07-20T13:35:08;2.30;;;1.40;;
65009;SDS011;51556;50.002;22.014;2023-07-20T13:37:34;1.90;;;1.10;;
65009;SDS011;51556;50.002;22.014;2023-07-20T13:40:00;2.70;;;1.20;;
65009;SDS011;51556;50.002;22.014;2023-07-20T13:42:25;2.40;;;1.20;;
65009;SDS011;51556;50.002;22.014;2023-07-20T13:44:51;3.90;;;1.10;;
65009;SDS011;51556;50.002;22.014;2023-07-20T13:47:16;2.10;;;1.10;;
65009;SDS011;51556;50.002;22.014;2023-07-20T13:49:42;2.70;;;1.20;;
65009;SDS011;51556;50.002;22.014;2023-07-20T13:52:08;1.60;;;1.00;;
65009;SDS011;51556;50.002;22.014;2023-07-20T13:54:34;2.70;;;1.10;;
65009;SDS011;51556;50.002;22.014;2023-07-20T13:56:59;1.80;;;1.00;;
65009;SDS011;51556;50.002;22.014;2023-07-20T13:59:25;1.70;;;1.20;;
65009;SDS011;51556;50.002;22.014;2023-07-20T14:01:50;1.90;;;1.00;;
65009;SDS011;51556;50.002;22.014;2023-07-20T14:04:16;1.80;;;1.00;;
65009;SDS011;51556;50.002;22.014;2023-07-20T14:06:42;1.30;;;1.10;;
65009;SDS011;51556;50.002;22.014;2023-07-20T14:09:08;3.40;;;1.30;;
65009;SDS011;51556;50.002;22.014;2023-07-20T14:11:33;2.40;;;1.40;;
65009;SDS011;51556;50.002;22.014;2023-07-20T14:13:59;2.80;;;1.20;;
65009;SDS011;51556;50.002;22.014;2023-07-20T14:16:24;1.80;;;1.20;;
65009;SDS011;51556;50.002;22.014;2023-07-20T14:18:50;2.20;;;1.10;;
65009;SDS011;51556;50.002;22.014;2023-07-20T14:21:17;3.30;;;1.10;;
65009;SDS011;51556;50.002;22.014;2023-07-20T14:23:47;2.50;;;1.00;;
65009;SDS011;51556;50.002;22.014;2023-07-20T14:26:17;2.40;;;1.20;;
65009;SDS011;51556;50.002;22.014;2023-07-20T14:28:42;2.60;;;1.10;;
65009;SDS011;51556;50.002;22.014;2023-07-20T14:31:08;1.50;;;1.00;;
65009;SDS011;51556;50.002;22.014;2023-07-20T14:33:34;2.20;;;1.40;;
65009;SDS011;51556;50.002;22.014;2023-07-20T14:36:00;2.50;;;1.20;;
65009;SDS011;51556;50.002;22.014;2023-07-20T14:38:27;1.90;;;1.10;;
65009;SDS011;51556;50.002;22.014;2023-07-20T14:40:53;3.00;;;1.00;;
65009;SDS011;51556;50.002;22.014;2023-07-20T14:43:19;1.40;;;1.00;;
65009;SDS011;51556;50.002;22.014;2023-07-20T14:45:45;3.80;;;1.60;;
65009;SDS011;51556;50.002;22.014;2023-07-20T14:48:11;2.50;;;1.00;;
65009;SDS011;51556;50.002;22.014;2023-07-20T14:50:36;4.30;;;1.10;;
65009;SDS011;51556;50.002;22.014;2023-07-20T14:53:02;2.40;;;1.30;;
65009;SDS011;51556;50.002;22.014;2023-07-20T14:55:28;4.10;;;1.10;;
65009;SDS011;51556;50.002;22.014;2023-07-20T14:57:54;2.90;;;0.90;;
65009;SDS011;51556;50.002;22.014;2023-07-20T15:00:19;1.60;;;1.00;;
65009;SDS011;51556;50.002;22.014;2023-07-20T15:02:45;6.90;;;1.50;;